Terminal Aerodrome Forecast
Issued by NWS

Home | Current Version | Previous Version | Graphics & Text | Print | Product List | Glossary On
Versions: 1 2 3 4 5 6 7 8 9 10 11 12
000
FTUS45 KGGW 171753
TAFGDV
TAF
KGDV 171753Z 1718/1818 25008KT P6SM BKN090
     FM180000 12005KT 6SM -SHSN OVC050
     FM180400 08009KT 1 1/2SM -SN OVC035
     FM180600 07012KT 3/4SM -SN BLSN SCT003 OVC010
     FM180800 06012KT 3SM -SN BLSN OVC010
     FM181600 01011KT P6SM BKN020=

USA.gov is the U.S. government's official web portal to all federal, state and local government web resources and services.